createdAt,value
2022-12-05T00:01:45.748Z,9.22
2022-12-05T00:04:15.477Z,9.28
2022-12-05T00:06:43.963Z,9.16
2022-12-05T00:09:14.315Z,9.16
2022-12-05T00:11:44.638Z,9.11
2022-12-05T00:14:13.179Z,8.75
2022-12-05T00:16:43.030Z,7.93
2022-12-05T00:19:13.188Z,7.81
2022-12-05T00:21:41.062Z,7.84
2022-12-05T00:24:12.527Z,7.61
2022-12-05T00:26:41.412Z,7.31
2022-12-05T00:29:09.136Z,7.06
2022-12-05T00:31:36.735Z,7.19
2022-12-05T00:34:04.619Z,7.15
2022-12-05T00:36:35.196Z,7.35
2022-12-05T00:39:07.301Z,7.03
2022-12-05T00:41:35.222Z,6.98
2022-12-05T00:44:05.507Z,6.96
2022-12-05T00:46:34.291Z,6.48
2022-12-05T00:49:03.272Z,6.43
2022-12-05T00:51:33.108Z,6.69
2022-12-05T00:54:02.679Z,6.86
2022-12-05T00:56:31.888Z,6.65
2022-12-05T00:59:01.355Z,7.10
2022-12-05T01:01:33.588Z,6.48
2022-12-05T01:04:06.443Z,6.21
2022-12-05T01:06:34.364Z,6.25
2022-12-05T01:09:01.961Z,6.22
2022-12-05T01:11:31.694Z,6.13
2022-12-05T01:14:00.850Z,6.37
2022-12-05T01:16:31.606Z,5.69
2022-12-05T01:19:01.712Z,5.94
2022-12-05T01:21:29.414Z,6.31
2022-12-05T01:23:57.660Z,6.10
2022-12-05T01:26:25.825Z,6.06
2022-12-05T01:28:53.691Z,5.86
2022-12-05T01:31:25.282Z,5.50
2022-12-05T01:33:55.516Z,5.56
2022-12-05T01:36:24.143Z,5.44
2022-12-05T01:38:52.327Z,5.21
2022-12-05T01:41:23.722Z,5.44
2022-12-05T01:43:56.090Z,5.73
2022-12-05T01:46:23.905Z,5.46
2022-12-05T01:48:52.651Z,5.85
2022-12-05T01:51:21.724Z,6.02
2022-12-05T01:53:49.365Z,6.40
2022-12-05T01:56:18.049Z,5.99
2022-12-05T01:58:46.808Z,5.80
2022-12-05T02:01:16.918Z,5.93
2022-12-05T02:03:46.743Z,6.23
2022-12-05T02:06:14.591Z,6.33
2022-12-05T02:08:45.239Z,6.05
2022-12-05T02:11:13.411Z,6.07
2022-12-05T02:14:06.970Z,6.36
2022-12-05T02:16:47.759Z,5.97
2022-12-05T02:19:38.432Z,5.98
2022-12-05T02:22:28.291Z,5.70
2022-12-05T02:25:20.333Z,5.56
2022-12-05T02:28:08.306Z,5.92
2022-12-05T02:30:41.312Z,5.71
2022-12-05T02:33:19.794Z,5.58
2022-12-05T02:35:56.378Z,5.06
2022-12-05T02:38:31.177Z,5.41
2022-12-05T02:41:12.529Z,5.42
2022-12-05T02:43:43.075Z,5.74
2022-12-05T02:46:15.432Z,5.27
2022-12-05T02:48:46.012Z,5.22
2022-12-05T02:51:18.492Z,5.55
2022-12-05T02:53:49.152Z,5.55
2022-12-05T02:56:17.060Z,5.12
2022-12-05T02:58:49.767Z,5.10
2022-12-05T03:01:19.643Z,5.16
2022-12-05T03:03:47.313Z,5.14
2022-12-05T03:06:17.072Z,5.11
2022-12-05T03:08:51.967Z,5.50
2022-12-05T03:11:19.702Z,5.81
2022-12-05T03:13:52.201Z,5.58
2022-12-05T03:16:26.693Z,5.56
2022-12-05T03:18:59.482Z,5.16
2022-12-05T03:21:32.772Z,5.33
2022-12-05T03:24:03.868Z,5.43
2022-12-05T03:26:42.384Z,5.18
2022-12-05T03:29:21.962Z,5.00
2022-12-05T03:31:58.301Z,5.13
2022-12-05T03:34:37.170Z,5.43
2022-12-05T03:37:08.834Z,5.21
2022-12-05T03:39:39.044Z,5.48
2022-12-05T03:42:12.859Z,5.33
2022-12-05T03:44:48.624Z,5.16
2022-12-05T03:47:23.962Z,5.45
2022-12-05T03:49:56.836Z,5.29
2022-12-05T03:52:30.866Z,5.47
2022-12-05T03:55:03.408Z,5.63
2022-12-05T03:57:36.821Z,5.46
2022-12-05T04:00:09.881Z,4.82
2022-12-05T04:02:45.573Z,5.04
2022-12-05T04:05:18.754Z,5.04
2022-12-05T04:07:49.872Z,5.18
2022-12-05T04:10:22.179Z,5.01
2022-12-05T04:12:52.847Z,5.03
2022-12-05T04:15:24.608Z,4.69
2022-12-05T04:17:57.311Z,4.88
2022-12-05T04:20:48.148Z,5.44
2022-12-05T04:23:16.134Z,5.14
2022-12-05T04:25:53.655Z,4.96
2022-12-05T04:28:28.589Z,5.07
2022-12-05T04:31:03.942Z,4.68
2022-12-05T04:33:40.828Z,4.77
2022-12-05T04:36:13.870Z,4.79
2022-12-05T04:38:48.471Z,4.86
2022-12-05T04:41:21.841Z,4.82
2022-12-05T04:43:52.123Z,4.63
2022-12-05T04:46:22.027Z,4.65
2022-12-05T04:48:54.659Z,4.34
2022-12-05T04:51:25.062Z,4.64
2022-12-05T04:54:00.176Z,4.62
2022-12-05T04:56:31.533Z,4.43
2022-12-05T04:58:59.075Z,4.34
2022-12-05T05:01:32.667Z,4.55
2022-12-05T05:04:07.950Z,4.42
2022-12-05T05:06:38.354Z,4.63
2022-12-05T05:09:06.094Z,5.24
2022-12-05T05:11:35.526Z,5.49
2022-12-05T05:14:04.175Z,5.48
2022-12-05T05:16:34.971Z,5.00
2022-12-05T05:19:04.753Z,4.50
2022-12-05T05:21:34.858Z,5.07
2022-12-05T05:24:02.992Z,5.63
2022-12-05T05:26:31.756Z,5.62
2022-12-05T05:28:59.515Z,5.44
2022-12-05T05:31:27.242Z,5.54
2022-12-05T05:33:56.536Z,5.75
2022-12-05T05:36:27.230Z,5.54
2022-12-05T05:38:56.514Z,5.42
2022-12-05T05:41:25.635Z,5.69
2022-12-05T05:43:54.371Z,5.44
2022-12-05T05:46:23.863Z,4.90
2022-12-05T05:48:51.504Z,4.66
2022-12-05T05:51:19.956Z,5.01
2022-12-05T05:53:49.730Z,4.94
2022-12-05T05:56:21.745Z,4.88
2022-12-05T05:58:55.798Z,5.24
2022-12-05T06:01:23.449Z,5.34
2022-12-05T06:03:51.420Z,4.79
2022-12-05T06:06:20.432Z,5.29
2022-12-05T06:08:49.432Z,5.76
2022-12-05T06:11:25.330Z,5.80
2022-12-05T06:13:54.039Z,5.58
2022-12-05T06:16:21.918Z,6.07
2022-12-05T06:18:50.185Z,5.94
2022-12-05T06:21:18.399Z,6.09
2022-12-05T06:23:46.712Z,5.50
2022-12-05T06:26:18.195Z,5.70
2022-12-05T06:28:46.079Z,5.73
2022-12-05T06:31:15.497Z,5.47
2022-12-05T06:33:43.230Z,5.73
2022-12-05T06:36:13.591Z,5.85
2022-12-05T06:38:42.543Z,5.59
2022-12-05T06:41:12.968Z,5.92
2022-12-05T06:43:42.318Z,5.97
2022-12-05T06:46:11.736Z,5.74
2022-12-05T06:48:39.810Z,6.14
2022-12-05T06:51:10.831Z,6.29
2022-12-05T06:53:38.838Z,6.41
2022-12-05T06:56:12.387Z,5.63
2022-12-05T06:58:40.027Z,5.54
2022-12-05T07:01:30.299Z,5.37
2022-12-05T07:03:58.065Z,5.17
2022-12-05T07:06:25.992Z,4.98
2022-12-05T07:08:53.668Z,4.88
2022-12-05T07:11:21.292Z,4.72
2022-12-05T07:13:49.004Z,5.04
2022-12-05T07:16:18.005Z,4.84
2022-12-05T07:18:45.627Z,4.86
2022-12-05T07:21:15.555Z,4.30
2022-12-05T07:23:44.806Z,4.55
2022-12-05T07:26:14.957Z,5.03
2022-12-05T07:28:42.832Z,5.08
2022-12-05T07:31:12.006Z,5.01
2022-12-05T07:33:43.098Z,4.66
2022-12-05T07:36:12.737Z,4.38
2022-12-05T07:38:41.149Z,4.02
2022-12-05T07:41:13.297Z,4.27
2022-12-05T07:43:41.388Z,4.14
2022-12-05T07:46:11.286Z,4.65
2022-12-05T07:48:39.319Z,4.63
2022-12-05T07:51:09.726Z,4.93
2022-12-05T07:53:38.950Z,4.95
2022-12-05T07:56:08.673Z,5.01
2022-12-05T07:58:36.938Z,4.50
2022-12-05T08:01:08.968Z,5.05
2022-12-05T08:03:37.354Z,5.21
2022-12-05T08:06:05.355Z,5.07
2022-12-05T08:08:34.606Z,4.91
2022-12-05T08:11:04.567Z,4.99
2022-12-05T08:13:32.123Z,5.21
2022-12-05T08:16:02.626Z,5.09
2022-12-05T08:18:30.456Z,5.03
2022-12-05T08:21:02.811Z,5.06
2022-12-05T08:23:31.282Z,5.14
2022-12-05T08:26:03.939Z,5.61
2022-12-05T08:28:31.576Z,5.51
2022-12-05T08:31:05.927Z,5.34
2022-12-05T08:33:33.700Z,5.00
2022-12-05T08:36:03.090Z,5.27
2022-12-05T08:38:31.029Z,5.24
2022-12-05T08:41:03.245Z,5.54
2022-12-05T08:43:31.210Z,5.88
2022-12-05T08:45:59.689Z,5.74
2022-12-05T08:48:29.653Z,5.54
2022-12-05T08:50:58.160Z,5.70
2022-12-05T08:53:26.254Z,5.82
2022-12-05T08:55:53.783Z,5.75
2022-12-05T08:58:22.707Z,6.06
2022-12-05T09:00:50.230Z,5.92
2022-12-05T09:03:17.780Z,6.04
2022-12-05T09:05:45.423Z,6.46
2022-12-05T09:08:13.110Z,5.98
2022-12-05T09:10:40.670Z,6.27
2022-12-05T09:13:08.194Z,6.11
2022-12-05T09:15:39.214Z,5.88
2022-12-05T09:18:06.871Z,6.15
2022-12-05T09:20:34.658Z,6.18
2022-12-05T09:23:02.208Z,6.46
2022-12-05T09:25:29.736Z,6.72
2022-12-05T09:27:57.276Z,6.71
2022-12-05T09:30:24.836Z,6.33
2022-12-05T09:32:53.706Z,6.58
2022-12-05T09:35:21.594Z,6.45
2022-12-05T09:37:49.094Z,6.00
2022-12-05T09:40:17.700Z,5.97
2022-12-05T09:42:57.705Z,5.87
2022-12-05T09:45:30.147Z,6.39
2022-12-05T09:48:02.245Z,6.72
2022-12-05T09:50:34.550Z,6.71
2022-12-05T09:53:07.390Z,6.34
2022-12-05T09:55:41.445Z,6.55
2022-12-05T09:58:20.562Z,5.95
2022-12-05T10:00:49.629Z,6.28
2022-12-05T10:03:29.571Z,6.39
2022-12-05T10:06:10.419Z,6.11
2022-12-05T10:08:45.678Z,6.09
2022-12-05T10:11:18.979Z,5.84
2022-12-05T10:13:53.968Z,5.41
2022-12-05T10:16:30.398Z,5.26
2022-12-05T10:19:03.678Z,5.14
2022-12-05T10:21:35.267Z,5.28
2022-12-05T10:24:05.066Z,5.30
2022-12-05T10:26:35.568Z,4.99
2022-12-05T10:29:13.154Z,5.18
2022-12-05T10:31:42.157Z,5.49
2022-12-05T10:34:17.634Z,5.56
2022-12-05T10:36:55.814Z,5.22
2022-12-05T10:39:23.557Z,5.12
2022-12-05T10:41:51.333Z,4.72
2022-12-05T10:44:19.028Z,4.54
2022-12-05T10:46:46.884Z,4.51
2022-12-05T10:49:15.796Z,4.64
2022-12-05T10:51:43.466Z,4.77
2022-12-05T10:54:18.731Z,4.59
2022-12-05T10:56:48.077Z,4.53
2022-12-05T10:59:17.619Z,4.84
2022-12-05T11:01:49.339Z,4.39
2022-12-05T11:04:27.681Z,4.44
2022-12-05T11:06:59.531Z,4.70
2022-12-05T11:09:29.723Z,4.76
2022-12-05T11:12:17.648Z,4.66
2022-12-05T11:14:57.118Z,4.14
2022-12-05T11:17:27.626Z,4.42
2022-12-05T11:19:56.510Z,4.68
2022-12-05T11:22:32.101Z,4.89
2022-12-05T11:24:59.956Z,4.88
2022-12-05T11:27:30.076Z,5.24
2022-12-05T11:30:02.629Z,5.46
2022-12-05T11:32:32.549Z,5.53
2022-12-05T11:35:09.978Z,5.69
2022-12-05T11:37:44.392Z,5.80
2022-12-05T11:40:18.192Z,5.67
2022-12-05T11:43:05.532Z,5.67
2022-12-05T11:45:47.985Z,5.79
2022-12-05T11:48:32.895Z,5.85
2022-12-05T11:51:25.252Z,5.87
2022-12-05T11:54:12.674Z,5.64
2022-12-05T11:56:43.238Z,5.35
2022-12-05T11:59:28.628Z,5.45
2022-12-05T12:02:05.643Z,5.35
2022-12-05T12:04:48.119Z,5.17
2022-12-05T12:07:30.743Z,5.92
2022-12-05T12:10:10.429Z,5.99
2022-12-05T12:12:47.041Z,6.12
2022-12-05T12:15:31.004Z,5.82
2022-12-05T12:18:13.883Z,5.95
2022-12-05T12:20:53.580Z,6.13
2022-12-05T12:23:36.593Z,6.14
2022-12-05T12:26:11.221Z,5.61
2022-12-05T12:28:45.583Z,5.69
2022-12-05T12:31:50.683Z,6.20
2022-12-05T12:34:46.636Z,6.39
2022-12-05T12:37:25.706Z,6.12
2022-12-05T12:40:03.815Z,6.26
2022-12-05T12:42:40.414Z,6.34
2022-12-05T12:45:39.377Z,6.21
2022-12-05T12:48:18.554Z,5.88
2022-12-05T12:50:52.254Z,5.72
2022-12-05T12:53:43.348Z,5.40
2022-12-05T12:56:27.356Z,5.21
2022-12-05T12:59:00.536Z,5.46
2022-12-05T13:01:34.910Z,5.68
2022-12-05T13:04:09.493Z,5.55
2022-12-05T13:06:43.882Z,5.69
2022-12-05T13:09:19.710Z,5.18
2022-12-05T13:11:50.715Z,5.45
2022-12-05T13:14:23.347Z,5.11
2022-12-05T13:16:54.232Z,5.39
2022-12-05T13:19:29.558Z,5.54
2022-12-05T13:21:58.739Z,5.74
2022-12-05T13:24:29.289Z,5.83
2022-12-05T13:27:01.398Z,5.79
2022-12-05T13:29:34.099Z,6.00
2022-12-05T13:32:03.779Z,6.28
2022-12-05T13:34:46.339Z,5.73
2022-12-05T13:37:41.198Z,5.43
2022-12-05T13:40:43.357Z,5.87
2022-12-05T13:43:13.414Z,6.01
2022-12-05T13:45:53.698Z,6.27
2022-12-05T13:48:24.768Z,6.43
2022-12-05T13:50:58.851Z,6.30
2022-12-05T13:53:32.662Z,6.37
2022-12-05T13:56:05.493Z,6.63
2022-12-05T13:58:49.357Z,7.00
2022-12-05T14:01:55.737Z,6.67
2022-12-05T14:04:50.119Z,5.60
2022-12-05T14:07:40.975Z,5.50
2022-12-05T14:10:09.740Z,5.82
2022-12-05T14:12:55.059Z,5.70
2022-12-05T14:15:32.837Z,5.60
2022-12-05T14:18:14.108Z,5.80
2022-12-05T14:20:52.783Z,5.63
2022-12-05T14:23:39.024Z,5.75
2022-12-05T14:26:17.565Z,5.30
2022-12-05T14:29:01.470Z,5.67
2022-12-05T14:31:48.545Z,5.95
2022-12-05T14:34:24.863Z,6.15
2022-12-05T14:37:01.593Z,6.28
2022-12-05T14:39:34.945Z,6.44
2022-12-05T14:42:06.811Z,6.57
2022-12-05T14:44:34.952Z,6.48
2022-12-05T14:47:07.664Z,6.48
2022-12-05T14:49:52.384Z,6.82
2022-12-05T14:52:22.897Z,7.11
2022-12-05T14:54:53.270Z,7.34
2022-12-05T14:57:22.952Z,7.40
2022-12-05T14:59:53.688Z,7.53
2022-12-05T15:02:27.931Z,7.52
2022-12-05T15:05:01.459Z,7.40
2022-12-05T15:07:34.507Z,7.29
2022-12-05T15:10:05.962Z,6.83
2022-12-05T15:12:40.544Z,7.19
2022-12-05T15:15:14.553Z,7.28
2022-12-05T15:17:48.546Z,7.34
2022-12-05T15:20:22.565Z,7.33
2022-12-05T15:22:50.269Z,7.30
2022-12-05T15:25:27.123Z,6.99
2022-12-05T15:27:57.353Z,6.83
2022-12-05T15:30:25.140Z,6.25
2022-12-05T15:32:59.221Z,6.59
2022-12-05T15:35:29.724Z,6.78
2022-12-05T15:38:00.031Z,6.69
2022-12-05T15:40:37.032Z,6.83
2022-12-05T15:43:28.684Z,7.04
2022-12-05T15:46:10.309Z,6.59
2022-12-05T15:48:39.276Z,6.49
2022-12-05T15:51:06.941Z,5.89
2022-12-05T15:53:38.059Z,6.02
2022-12-05T15:56:10.411Z,6.11
2022-12-05T15:58:42.806Z,6.43
2022-12-05T16:01:15.267Z,6.58
2022-12-05T16:03:51.843Z,6.81
2022-12-05T16:06:23.596Z,6.47
2022-12-05T16:08:52.616Z,6.44
2022-12-05T16:11:20.423Z,6.57
2022-12-05T16:13:52.361Z,6.71
2022-12-05T16:16:23.254Z,6.46
2022-12-05T16:18:55.547Z,6.59
2022-12-05T16:21:35.989Z,6.57
2022-12-05T16:24:09.217Z,6.75
2022-12-05T16:26:39.405Z,6.82
2022-12-05T16:29:09.368Z,6.66
2022-12-05T16:31:37.420Z,6.99
2022-12-05T16:34:08.665Z,6.97
2022-12-05T16:36:37.061Z,7.02
2022-12-05T16:39:06.994Z,7.09
2022-12-05T16:41:36.199Z,6.84
2022-12-05T16:44:11.471Z,6.81
2022-12-05T16:46:46.067Z,6.94
2022-12-05T16:49:20.243Z,7.19
2022-12-05T16:51:57.628Z,6.87
2022-12-05T16:54:25.196Z,6.79
2022-12-05T16:56:52.914Z,6.96
2022-12-05T16:59:24.956Z,6.99
2022-12-05T17:01:52.713Z,7.10
2022-12-05T17:04:21.697Z,7.29
2022-12-05T17:06:49.324Z,7.29
2022-12-05T17:09:16.936Z,7.26
2022-12-05T17:11:46.281Z,7.42
2022-12-05T17:14:15.644Z,7.38
2022-12-05T17:16:43.973Z,6.82
2022-12-05T17:19:12.034Z,6.64
2022-12-05T17:21:43.375Z,6.80
2022-12-05T17:24:15.703Z,6.79
2022-12-05T17:26:43.214Z,6.87
2022-12-05T17:29:11.552Z,6.87
2022-12-05T17:31:39.519Z,6.97
2022-12-05T17:34:16.639Z,6.87
2022-12-05T17:36:45.892Z,6.45
2022-12-05T17:39:13.899Z,6.69
2022-12-05T17:41:41.507Z,6.66
2022-12-05T17:44:13.789Z,7.10
2022-12-05T17:46:42.740Z,7.27
2022-12-05T17:49:14.668Z,6.94
2022-12-05T17:52:05.380Z,6.38
2022-12-05T17:54:31.955Z,6.73
2022-12-05T17:56:59.490Z,6.95
2022-12-05T17:59:27.095Z,7.02
2022-12-05T18:01:54.656Z,7.01
2022-12-05T18:07:09.719Z,6.33
2022-12-05T18:09:38.582Z,6.27
2022-12-05T18:12:06.588Z,6.67
2022-12-05T18:14:35.945Z,5.68
2022-12-05T18:17:03.849Z,6.04
2022-12-05T18:19:31.382Z,6.52
2022-12-05T18:21:58.909Z,6.38
2022-12-05T18:24:26.504Z,6.57
2022-12-05T18:26:56.048Z,6.82
2022-12-05T18:29:23.854Z,6.81
2022-12-05T18:31:51.406Z,6.82
2022-12-05T18:34:19.291Z,6.67
2022-12-05T18:36:46.871Z,6.56
2022-12-05T18:39:14.924Z,6.56
2022-12-05T18:41:42.894Z,6.74
2022-12-05T18:44:11.853Z,6.78
2022-12-05T18:46:39.473Z,6.41
2022-12-05T18:49:07.899Z,6.36
2022-12-05T18:51:35.456Z,6.59
2022-12-05T18:54:02.993Z,6.54
2022-12-05T18:56:34.506Z,6.37
2022-12-05T18:59:04.115Z,5.71
2022-12-05T19:01:34.563Z,4.95
2022-12-05T19:04:04.084Z,4.58
2022-12-05T19:06:34.191Z,4.51
2022-12-05T19:09:03.590Z,4.65
2022-12-05T19:11:31.186Z,4.22
2022-12-05T19:13:59.924Z,4.16
2022-12-05T19:16:28.976Z,4.16
2022-12-05T19:19:00.191Z,4.18
2022-12-05T19:21:30.064Z,4.26
2022-12-05T19:23:57.816Z,4.28
2022-12-05T19:26:26.352Z,3.94
2022-12-05T19:28:54.314Z,3.85
2022-12-05T19:31:23.800Z,3.92
2022-12-05T19:33:53.357Z,3.89
2022-12-05T19:36:23.781Z,4.08
2022-12-05T19:38:53.478Z,3.99
2022-12-05T19:41:23.097Z,4.27
2022-12-05T19:43:50.880Z,4.44
2022-12-05T19:46:20.210Z,4.27
2022-12-05T19:48:48.647Z,3.98
2022-12-05T19:51:16.243Z,4.18
2022-12-05T19:53:46.107Z,4.39
2022-12-05T19:56:16.074Z,4.38
2022-12-05T19:58:43.848Z,4.28
2022-12-05T20:01:13.193Z,4.02
2022-12-05T20:03:41.908Z,4.28
2022-12-05T20:06:10.779Z,4.16
2022-12-05T20:08:39.091Z,3.84
2022-12-05T20:11:10.915Z,3.56
2022-12-05T20:13:47.904Z,3.45
2022-12-05T20:16:18.385Z,3.58
2022-12-05T20:18:46.926Z,3.53
2022-12-05T20:21:16.692Z,3.37
2022-12-05T20:23:44.559Z,3.36
2022-12-05T20:26:15.744Z,3.41
2022-12-05T20:28:43.431Z,3.46
2022-12-05T20:31:13.186Z,3.78
2022-12-05T20:33:41.761Z,3.83
2022-12-05T20:36:12.465Z,4.17
2022-12-05T20:38:40.320Z,4.01
2022-12-05T20:41:11.029Z,4.70
2022-12-05T20:43:39.922Z,4.71
2022-12-05T20:46:09.276Z,4.78
2022-12-05T20:48:36.955Z,5.09
2022-12-05T20:51:05.829Z,5.97
2022-12-05T20:53:34.098Z,4.87
2022-12-05T20:56:04.311Z,5.17
2022-12-05T20:58:31.847Z,4.62
2022-12-05T21:01:01.362Z,4.30
2022-12-05T21:03:29.067Z,4.25
2022-12-05T21:05:56.676Z,4.04
2022-12-05T21:08:24.672Z,3.89
2022-12-05T21:10:53.920Z,3.78
2022-12-05T21:13:21.632Z,3.61
2022-12-05T21:15:49.161Z,3.71
2022-12-05T21:18:18.034Z,4.11
2022-12-05T21:20:45.559Z,3.84
2022-12-05T21:23:13.085Z,3.80
2022-12-05T21:25:40.602Z,4.42
2022-12-05T21:28:08.123Z,4.51
2022-12-05T21:30:35.675Z,4.77
2022-12-05T21:33:05.420Z,4.70
2022-12-05T21:35:34.324Z,4.38
2022-12-05T21:38:02.663Z,4.46
2022-12-05T21:40:30.215Z,4.73
2022-12-05T21:42:57.726Z,4.13
2022-12-05T21:45:25.286Z,4.15
2022-12-05T21:47:52.812Z,4.14
2022-12-05T21:50:20.324Z,3.72
2022-12-05T21:52:49.304Z,4.00
2022-12-05T21:55:17.061Z,3.95
2022-12-05T21:57:44.831Z,4.02
2022-12-05T22:00:13.101Z,4.26
2022-12-05T22:02:40.774Z,4.24
2022-12-05T22:05:09.076Z,4.44
2022-12-05T22:07:36.732Z,4.59
2022-12-05T22:10:07.359Z,4.59
2022-12-05T22:12:35.447Z,4.62
2022-12-05T22:15:02.944Z,5.07
2022-12-05T22:17:30.518Z,4.66
2022-12-05T22:19:58.369Z,4.71
2022-12-05T22:22:26.199Z,5.26
2022-12-05T22:24:53.780Z,5.45
2022-12-05T22:27:23.055Z,5.78
2022-12-05T22:29:52.822Z,5.47
2022-12-05T22:32:20.585Z,5.21
2022-12-05T22:34:48.114Z,5.20
2022-12-05T22:37:15.635Z,5.53
2022-12-05T22:39:43.171Z,5.51
2022-12-05T22:42:10.750Z,5.84
2022-12-05T22:44:39.619Z,5.50
2022-12-05T22:47:07.193Z,5.94
2022-12-05T22:49:34.749Z,5.94
2022-12-05T22:52:02.309Z,6.12
2022-12-05T22:54:30.477Z,6.26
2022-12-05T22:56:58.089Z,6.29
2022-12-05T22:59:25.610Z,5.82
2022-12-05T23:01:54.492Z,5.82
2022-12-05T23:04:22.241Z,5.53
2022-12-05T23:06:49.997Z,5.42
2022-12-05T23:09:17.674Z,5.52
2022-12-05T23:11:45.339Z,5.81
2022-12-05T23:14:13.025Z,5.72
2022-12-05T23:16:40.813Z,5.55
2022-12-05T23:19:10.034Z,5.72
2022-12-05T23:21:40.310Z,5.82
2022-12-05T23:24:10.189Z,5.75
2022-12-05T23:26:39.660Z,5.60
2022-12-05T23:29:07.422Z,5.80
2022-12-05T23:31:35.418Z,6.04
2022-12-05T23:34:05.424Z,6.24
2022-12-05T23:36:35.631Z,6.46
2022-12-05T23:39:03.714Z,6.47
2022-12-05T23:41:31.638Z,5.99
2022-12-05T23:43:59.320Z,5.38
2022-12-05T23:46:28.228Z,5.54
2022-12-05T23:48:56.154Z,5.84
2022-12-05T23:51:25.346Z,5.98
2022-12-05T23:53:56.314Z,5.57
2022-12-05T23:56:25.998Z,5.32
2022-12-05T23:58:54.754Z,4.95
